Time;durP1;ratioP1;P1;durP2;ratioP2;P2;SDS_P1;SDS_P2;PMS_P1;PMS_P2;Temp;Humidity;BMP_temperature;BMP_pressure;BME280_temperature;BME280_humidity;BME280_pressure;Samples;Min_cycle;Max_cycle;Signal;HPM_P1;HPM_P2
2023/09/20 04:32:36;;;;;;;;;0.00;0.00;;;;;28.03;45.66;100557.16;5016018;28;45568;-61
2023/09/20 04:35:02;;;;;;;;;0.75;0.75;;;;;28.02;45.53;100563.72;5018082;28;45338;-61
2023/09/20 04:37:28;;;;;;;;;1.75;1.75;;;;;28.11;45.33;100557.06;5018297;28;45473;-61
2023/09/20 04:39:53;;;;;;;;;2.25;0.50;;;;;28.16;45.19;100549.97;5018324;28;45334;-61
2023/09/20 04:42:19;;;;;;;;;0.00;0.00;;;;;28.15;45.15;100550.16;5018414;28;46111;-62
2023/09/20 04:44:44;;;;;;;;;0.50;0.50;;;;;28.14;45.71;100551.19;5017695;28;45348;-61
2023/09/20 04:47:10;;;;;;;;;0.00;0.00;;;;;27.99;45.93;100544.78;5018464;28;45454;-61
2023/09/20 04:49:39;;;;;;;;;0.00;0.00;;;;;27.95;45.59;100544.31;5018047;28;45728;-62
2023/09/20 04:52:05;;;;;;;;;1.00;1.00;;;;;27.83;45.77;100545.81;5018183;28;46220;-61
2023/09/20 04:54:32;;;;;;;;;0.75;0.75;;;;;27.70;46.28;100526.31;5017030;28;46897;-61
2023/09/20 04:56:59;;;;;;;;;1.00;1.00;;;;;27.76;46.08;100537.44;5017993;28;45242;-61
2023/09/20 04:59:25;;;;;;;;;1.00;1.00;;;;;27.80;45.77;100532.41;5016831;28;45313;-61
2023/09/20 05:01:50;;;;;;;;;0.50;0.50;;;;;27.88;45.85;100528.72;5017792;28;47122;-62
2023/09/20 05:04:18;;;;;;;;;0.50;0.50;;;;;27.90;45.84;100527.50;5017136;28;49230;-57
2023/09/20 05:06:44;;;;;;;;;1.00;1.00;;;;;27.73;46.48;100532.28;5017810;28;45387;-56
2023/09/20 05:09:09;;;;;;;;;5.25;3.00;;;;;27.82;45.90;100541.34;5017059;28;45388;-56
2023/09/20 05:11:35;;;;;;;;;1.00;1.00;;;;;27.83;46.16;100535.63;5017913;28;46416;-56
2023/09/20 05:14:00;;;;;;;;;0.50;0.50;;;;;27.91;45.74;100536.59;5017690;28;45337;-55
2023/09/20 05:16:26;;;;;;;;;1.00;1.00;;;;;27.84;45.63;100533.75;5021382;28;45286;-54
2023/09/20 05:18:52;;;;;;;;;2.50;2.00;;;;;27.84;46.09;100530.97;5021154;28;45956;-54
2023/09/20 05:21:17;;;;;;;;;2.25;1.25;;;;;27.86;45.93;100529.75;5021191;28;46063;-57
2023/09/20 05:23:42;;;;;;;;;1.00;1.00;;;;;27.66;46.23;100536.84;5020187;28;45458;-56
2023/09/20 05:26:08;;;;;;;;;0.50;0.50;;;;;27.72;45.93;100530.59;5021638;28;45301;-56
2023/09/20 05:28:35;;;;;;;;;1.00;1.00;;;;;27.67;46.31;100533.03;5021300;28;45538;-54
2023/09/20 05:31:02;;;;;;;;;1.75;1.75;;;;;27.54;46.79;100531.97;5018820;28;45488;-56
2023/09/20 05:33:30;;;;;;;;;0.50;0.50;;;;;27.63;46.37;100541.88;5020712;28;45408;-55
2023/09/20 05:35:57;;;;;;;;;1.75;1.25;;;;;27.54;46.14;100537.47;5021092;28;45348;-56
2023/09/20 05:38:24;;;;;;;;;1.50;1.50;;;;;27.54;46.71;100543.00;5020325;28;45417;-56
2023/09/20 05:40:49;;;;;;;;;0.75;0.75;;;;;27.54;46.53;100543.84;5020696;28;45381;-57
2023/09/20 05:43:16;;;;;;;;;0.50;0.50;;;;;27.42;46.28;100540.63;5020006;28;45298;-58
2023/09/20 05:45:42;;;;;;;;;1.00;1.00;;;;;27.50;46.28;100548.81;5020938;28;45370;-56
2023/09/20 05:48:09;;;;;;;;;1.00;1.00;;;;;27.50;46.74;100543.31;5019721;28;45495;-54
2023/09/20 05:50:34;;;;;;;;;2.50;1.50;;;;;27.52;46.32;100550.53;5019872;28;46209;-56
2023/09/20 05:53:01;;;;;;;;;0.75;0.75;;;;;27.56;46.18;100550.00;5018518;28;45374;-53
2023/09/20 05:55:31;;;;;;;;;1.00;1.00;;;;;27.59;46.55;100544.13;5017682;28;45432;-55
2023/09/20 05:57:57;;;;;;;;;1.00;1.00;;;;;27.59;46.65;100533.13;5019301;28;45469;-57
2023/09/20 06:00:22;;;;;;;;;0.75;0.75;;;;;27.59;46.52;100529.50;5019564;28;46344;-55
2023/09/20 06:02:49;;;;;;;;;2.25;0.75;;;;;27.41;46.61;100522.38;5019450;28;45368;-56
2023/09/20 06:05:15;;;;;;;;;1.75;1.75;;;;;27.48;46.28;100515.09;5020147;28;45360;-55
2023/09/20 06:07:41;;;;;;;;;1.75;1.50;;;;;27.47;46.51;100510.66;5019788;28;45628;-54
2023/09/20 06:10:07;;;;;;;;;7.50;2.25;;;;;27.45;46.80;100512.72;5020139;28;45462;-58
2023/09/20 06:12:33;;;;;;;;;2.00;2.00;;;;;27.34;47.15;100504.91;5020072;28;45225;-55
2023/09/20 06:14:58;;;;;;;;;2.00;2.00;;;;;27.36;46.94;100496.47;5020613;28;45350;-53
2023/09/20 06:17:23;;;;;;;;;2.00;2.00;;;;;27.40;46.37;100492.28;5020064;28;51220;-56
2023/09/20 06:19:49;;;;;;;;;4.00;2.75;;;;;27.48;47.02;100511.47;5020281;28;46723;-61
2023/09/20 06:22:15;;;;;;;;;2.00;2.00;;;;;27.42;46.60;100507.59;5020468;28;45354;-62
2023/09/20 06:24:44;;;;;;;;;3.00;2.00;;;;;27.47;47.08;100520.81;5020743;28;45391;-62
2023/09/20 06:27:10;;;;;;;;;1.75;1.75;;;;;27.09;47.39;100523.50;5017858;28;45598;-62
2023/09/20 06:29:35;;;;;;;;;4.50;2.75;;;;;27.31;47.33;100519.03;5019829;28;48289;-62
2023/09/20 06:32:04;;;;;;;;;1.25;1.25;;;;;27.24;47.55;100512.53;5002008;28;45390;-61
2023/09/20 06:34:30;;;;;;;;;1.25;1.25;;;;;27.31;47.59;100515.41;5020124;28;45341;-62
2023/09/20 06:36:55;;;;;;;;;2.75;2.75;;;;;26.98;47.93;100520.28;5019848;28;45372;-62
2023/09/20 06:39:20;;;;;;;;;2.00;2.00;;;;;26.99;47.91;100508.25;5020000;28;56212;-61
2023/09/20 06:41:46;;;;;;;;;2.25;2.00;;;;;27.15;47.37;100521.91;5020159;28;45267;-61
2023/09/20 06:44:14;;;;;;;;;0.25;0.25;;;;;27.23;47.78;100526.47;5020369;28;45364;-62
2023/09/20 06:46:42;;;;;;;;;3.50;2.50;;;;;27.33;47.28;100511.44;5019959;28;46317;-62
2023/09/20 06:49:08;;;;;;;;;2.50;0.00;;;;;27.31;47.04;100512.66;5019983;28;46143;-61
2023/09/20 06:51:34;;;;;;;;;2.50;2.50;;;;;27.28;47.08;100513.91;5019728;28;45240;-63
2023/09/20 06:53:59;;;;;;;;;3.75;1.75;;;;;27.25;47.20;100532.66;5019998;28;45451;-62
2023/09/20 06:56:25;;;;;;;;;1.00;1.00;;;;;27.37;47.26;100518.31;5019712;28;45262;-61
2023/09/20 06:58:52;;;;;;;;;1.75;1.75;;;;;27.53;46.65;100520.06;5019823;28;47170;-62
2023/09/20 07:01:17;;;;;;;;;1.50;1.50;;;;;27.45;47.22;100515.47;5019751;28;45330;-62
2023/09/20 07:03:45;;;;;;;;;4.75;1.00;;;;;27.61;46.87;100508.16;5019607;28;45405;-61
2023/09/20 07:06:11;;;;;;;;;2.00;2.00;;;;;27.53;46.89;100521.97;5019417;28;45452;-62
2023/09/20 07:08:36;;;;;;;;;1.25;1.25;;;;;27.48;46.62;100517.00;5019534;28;46280;-61
2023/09/20 07:11:04;;;;;;;;;2.00;2.00;;;;;27.73;46.31;100524.03;5019525;28;45329;-62
2023/09/20 07:13:31;;;;;;;;;2.00;2.00;;;;;27.85;46.15;100514.28;5019325;28;45342;-61
2023/09/20 07:15:58;;;;;;;;;4.25;2.00;;;;;27.62;46.68;100518.13;5018206;28;45330;-61
2023/09/20 07:18:23;;;;;;;;;2.00;2.00;;;;;27.69;46.57;100521.84;5019420;28;46110;-63
2023/09/20 07:20:54;;;;;;;;;2.25;2.25;;;;;27.74;46.24;100511.97;5018958;28;46947;-62
2023/09/20 07:23:19;;;;;;;;;2.50;2.50;;;;;27.90;46.15;100521.13;5019592;28;45147;-61
2023/09/20 07:25:45;;;;;;;;;1.50;1.50;;;;;27.85;46.11;100516.16;5019309;28;45346;-61
2023/09/20 07:28:11;;;;;;;;;3.25;2.25;;;;;27.97;46.00;100517.44;5019358;28;47221;-62
2023/09/20 07:30:40;;;;;;;;;2.00;2.00;;;;;27.95;45.76;100524.16;5017935;28;45254;-62
2023/09/20 07:33:11;;;;;;;;;2.00;2.00;;;;;28.02;45.47;100520.47;5019441;28;45376;-61
2023/09/20 07:35:46;;;;;;;;;5.75;3.75;;;;;27.92;46.02;100522.63;5018974;28;46159;-61
2023/09/20 07:38:14;;;;;;;;;1.75;1.50;;;;;27.84;46.15;100522.72;5018202;28;46216;-62
2023/09/20 07:40:50;;;;;;;;;5.00;4.00;;;;;27.81;45.94;100515.72;5006302;28;45353;-62
2023/09/20 07:43:17;;;;;;;;;1.25;1.00;;;;;27.68;46.47;100512.72;5019064;28;45258;-62
2023/09/20 07:45:43;;;;;;;;;1.00;1.00;;;;;27.90;45.62;100512.88;5019075;28;45947;-62
2023/09/20 07:48:12;;;;;;;;;3.00;2.25;;;;;27.94;46.09;100506.78;5018604;28;46300;-62
2023/09/20 07:50:41;;;;;;;;;3.25;3.25;;;;;27.92;45.81;100510.75;5018916;28;45327;-62
2023/09/20 07:53:10;;;;;;;;;3.25;3.25;;;;;28.14;45.56;100507.94;5018135;28;45362;-62
2023/09/20 07:55:37;;;;;;;;;3.75;2.25;;;;;28.37;45.09;100502.34;5018965;28;45283;-62
2023/09/20 07:58:02;;;;;;;;;3.25;1.75;;;;;28.28;44.87;100499.88;5018661;28;46229;-63
2023/09/20 08:00:28;;;;;;;;;2.25;2.25;;;;;28.31;45.29;100507.78;5019161;28;45288;-62
2023/09/20 08:02:54;;;;;;;;;3.25;2.50;;;;;28.45;44.58;100507.75;5018220;28;52997;-61
2023/09/20 08:05:22;;;;;;;;;1.50;0.00;;;;;28.30;44.60;100508.81;5018082;28;45464;-62
2023/09/20 08:07:48;;;;;;;;;3.00;3.00;;;;;28.49;44.93;100498.06;5017884;28;45441;-62
2023/09/20 08:10:14;;;;;;;;;5.25;4.00;;;;;28.48;44.88;100510.16;5018837;28;45349;-61
2023/09/20 08:12:39;;;;;;;;;3.00;3.00;;;;;28.58;44.26;100507.91;5018648;28;45485;-61
2023/09/20 08:15:05;;;;;;;;;3.50;3.50;;;;;28.74;44.45;100511.53;5018935;28;45424;-61
2023/09/20 08:20:16;;;;;;;;;6.00;2.50;;;;;28.54;44.26;100494.72;5018800;28;45334;-62
2023/09/20 09:01:12;;;;;;;;;1.00;1.00;;;;;29.17;42.56;100506.97;5021749;28;45306;-61
2023/09/20 09:03:39;;;;;;;;;2.75;2.75;;;;;29.16;42.55;100510.75;5021279;28;45326;-61
2023/09/20 09:06:05;;;;;;;;;1.00;1.00;;;;;29.31;42.51;100503.25;5021686;28;45404;-61
2023/09/20 09:08:31;;;;;;;;;3.50;2.25;;;;;29.43;42.27;100498.09;5021537;28;45846;-61
2023/09/20 09:10:56;;;;;;;;;2.00;2.00;;;;;29.50;41.91;100485.19;5021550;28;45325;-62
2023/09/20 09:13:21;;;;;;;;;1.25;1.00;;;;;29.41;41.89;100492.78;5021477;28;45346;-62
2023/09/20 09:15:48;;;;;;;;;1.50;1.50;;;;;29.62;41.78;100475.28;5021842;28;45314;-61
2023/09/20 09:18:16;;;;;;;;;4.75;1.00;;;;;29.59;41.96;100475.72;5021281;28;45390;-61
2023/09/20 09:20:41;;;;;;;;;2.75;1.75;;;;;29.71;41.48;100472.19;5020936;28;47044;-60
2023/09/20 09:23:07;;;;;;;;;1.75;1.75;;;;;29.81;41.14;100465.47;5021520;28;45344;-61
2023/09/20 09:25:33;;;;;;;;;1.50;1.50;;;;;29.38;41.18;100457.25;5021506;28;45598;-62
2023/09/20 09:27:58;;;;;;;;;1.50;1.50;;;;;29.61;40.89;100437.66;5021332;28;45345;-60
2023/09/20 09:30:23;;;;;;;;;3.75;3.00;;;;;29.90;41.33;100458.72;5019799;28;46450;-60
2023/09/20 09:32:50;;;;;;;;;4.25;2.50;;;;;29.63;41.18;100450.25;5021360;28;45349;-61
2023/09/20 09:35:18;;;;;;;;;2.00;2.00;;;;;29.57;41.29;100440.00;5021063;28;45471;-61
2023/09/20 09:37:44;;;;;;;;;1.50;1.50;;;;;29.77;40.22;100442.91;5020619;28;45308;-61
2023/09/20 09:40:11;;;;;;;;;0.50;0.50;;;;;29.75;39.48;100441.41;5020911;28;47389;-61
2023/09/20 09:42:39;;;;;;;;;0.25;0.25;;;;;29.69;39.66;100427.31;5021227;28;45519;-61
2023/09/20 09:45:06;;;;;;;;;1.50;1.50;;;;;29.68;39.17;100420.13;5021084;28;45325;-62
2023/09/20 09:47:35;;;;;;;;;4.75;3.00;;;;;29.63;39.43;100419.00;5020946;28;45266;-63
2023/09/20 09:50:03;;;;;;;;;1.75;1.75;;;;;29.88;38.66;100431.28;5020367;28;45456;-62
2023/09/20 09:52:29;;;;;;;;;1.25;1.25;;;;;29.92;38.77;100417.91;5020937;28;45447;-62
2023/09/20 09:54:55;;;;;;;;;6.00;3.00;;;;;29.88;38.83;100433.19;5020966;28;45483;-61
2023/09/20 09:57:21;;;;;;;;;2.50;2.50;;;;;29.79;38.33;100418.66;5020262;28;45554;-62
2023/09/20 09:59:51;;;;;;;;;0.75;0.75;;;;;29.89;37.86;100413.63;5020485;28;45345;-61
2023/09/20 10:02:19;;;;;;;;;1.75;1.75;;;;;29.58;38.13;100413.22;5020507;28;45333;-61
2023/09/20 10:05:01;;;;;;;;;1.50;1.50;;;;;30.00;37.93;100415.88;5019666;28;45500;-61
2023/09/20 10:07:31;;;;;;;;;1.50;1.50;;;;;30.17;38.09;100407.22;5020819;28;45320;-61
2023/09/20 10:10:17;;;;;;;;;2.75;2.50;;;;;30.17;38.09;100405.31;5020720;28;46346;-61
2023/09/20 10:12:48;;;;;;;;;1.00;1.00;;;;;30.00;37.14;100402.03;5020507;28;45433;-61
2023/09/20 10:15:15;;;;;;;;;4.00;3.50;;;;;30.32;37.72;100394.94;5020792;28;45357;-63
2023/09/20 10:17:54;;;;;;;;;1.25;1.25;;;;;30.05;36.43;100382.06;5020427;28;45480;-61
2023/09/20 10:20:20;;;;;;;;;3.00;3.00;;;;;29.98;36.14;100400.53;5020099;28;45329;-61
2023/09/20 10:22:52;;;;;;;;;2.00;2.00;;;;;29.86;36.16;100385.56;5020323;28;45473;-61
2023/09/20 10:25:34;;;;;;;;;1.25;1.25;;;;;30.22;34.90;100377.88;5020629;28;45330;-61
2023/09/20 10:28:17;;;;;;;;;1.50;1.50;;;;;29.93;35.33;100375.41;5020384;28;46116;-61
2023/09/20 10:30:55;;;;;;;;;1.25;1.25;;;;;30.45;34.82;100372.03;5012766;28;49657;-61
2023/09/20 10:33:46;;;;;;;;;2.00;2.00;;;;;30.42;34.44;100366.91;5014849;28;45347;-63
2023/09/20 10:36:31;;;;;;;;;2.00;2.00;;;;;30.64;34.47;100373.16;5019994;28;45349;-61
2023/09/20 10:39:18;;;;;;;;;1.75;1.75;;;;;30.62;34.10;100354.00;5018570;28;45504;-62
2023/09/20 10:41:45;;;;;;;;;3.25;2.25;;;;;30.23;33.56;100381.50;5020090;28;45501;-61
2023/09/20 10:44:31;;;;;;;;;2.00;2.00;;;;;30.37;33.39;100377.72;5020285;28;45385;-62
2023/09/20 10:47:06;;;;;;;;;1.25;1.25;;;;;30.53;32.98;100373.78;5020050;28;45318;-62
2023/09/20 10:49:50;;;;;;;;;5.25;2.25;;;;;30.06;32.91;100394.84;5019512;28;45370;-62
2023/09/20 10:52:31;;;;;;;;;1.25;1.25;;;;;30.67;32.74;100370.81;5018584;28;45411;-62
2023/09/20 10:55:14;;;;;;;;;2.75;2.00;;;;;30.70;33.45;100364.88;5019774;28;45187;-61
2023/09/20 10:57:42;;;;;;;;;0.75;0.75;;;;;31.06;33.38;100358.06;5019926;28;45455;-62
2023/09/20 11:00:07;;;;;;;;;3.75;2.00;;;;;31.22;33.01;100360.44;5020005;28;45302;-61
2023/09/20 11:02:33;;;;;;;;;1.25;1.00;;;;;31.52;32.55;100347.00;5019755;28;46086;-62
2023/09/20 11:04:59;;;;;;;;;1.50;1.50;;;;;31.19;32.64;100347.91;5019683;28;45473;-63
2023/09/20 11:07:26;;;;;;;;;2.25;2.25;;;;;31.61;31.79;100336.53;5020010;28;45415;-61
2023/09/20 11:09:54;;;;;;;;;2.00;2.00;;;;;31.66;31.88;100345.06;5019244;28;45528;-61
2023/09/20 11:12:20;;;;;;;;;3.00;3.00;;;;;32.24;30.28;100341.25;5018433;28;45345;-61
2023/09/20 11:14:47;;;;;;;;;2.00;2.00;;;;;32.58;30.27;100336.38;5019767;28;45429;-62
2023/09/20 11:17:14;;;;;;;;;3.50;2.00;;;;;32.66;29.60;100347.22;5019868;28;45516;-62
2023/09/20 11:19:40;;;;;;;;;1.75;1.75;;;;;32.88;29.74;100325.50;5019128;28;45417;-62
2023/09/20 11:22:05;;;;;;;;;1.75;1.75;;;;;32.98;29.54;100323.94;5018709;28;45444;-62
2023/09/20 11:24:32;;;;;;;;;1.50;1.50;;;;;33.36;29.77;100331.28;5019563;28;45392;-62
2023/09/20 11:26:57;;;;;;;;;1.50;1.50;;;;;33.68;29.03;100329.25;5018860;28;45375;-61
2023/09/20 11:29:24;;;;;;;;;2.00;2.00;;;;;33.80;29.27;100324.63;5019372;28;45439;-61
2023/09/20 11:31:54;;;;;;;;;1.75;1.75;;;;;33.84;29.04;100313.91;5017084;28;45369;-61
2023/09/20 11:34:19;;;;;;;;;2.50;2.00;;;;;33.97;28.88;100322.94;5019409;28;45334;-61
2023/09/20 11:36:46;;;;;;;;;4.00;2.00;;;;;34.16;28.96;100302.34;5018856;28;49421;-62
2023/09/20 11:39:17;;;;;;;;;3.00;2.00;;;;;34.31;28.28;100315.03;5019472;28;45426;-63
2023/09/20 11:41:44;;;;;;;;;0.00;0.00;;;;;33.77;29.07;100306.47;5019145;28;46175;-62
2023/09/20 11:44:09;;;;;;;;;2.00;2.00;;;;;33.87;29.08;100317.06;5019333;28;45397;-61
2023/09/20 11:46:35;;;;;;;;;1.50;1.50;;;;;34.47;28.06;100300.44;5019044;28;45376;-62
2023/09/20 11:49:02;;;;;;;;;4.00;1.25;;;;;34.69;27.56;100284.91;5018587;28;45310;-62
2023/09/20 11:51:36;;;;;;;;;2.00;2.00;;;;;34.69;27.48;100295.19;5018674;28;46513;-61
2023/09/20 11:54:05;;;;;;;;;2.00;2.00;;;;;35.13;27.02;100300.22;5018164;28;45331;-61
2023/09/20 11:56:33;;;;;;;;;1.50;1.50;;;;;35.23;27.17;100294.94;5019054;28;45345;-61
2023/09/20 11:58:59;;;;;;;;;4.50;0.50;;;;;35.22;27.05;100306.28;5018965;28;45452;-62
2023/09/20 12:01:29;;;;;;;;;3.75;1.25;;;;;34.54;27.81;100306.75;5018854;28;46315;-62
2023/09/20 12:03:58;;;;;;;;;3.00;2.00;;;;;35.30;27.11;100283.69;5017726;28;45349;-62
2023/09/20 12:06:26;;;;;;;;;1.00;1.00;;;;;35.79;26.75;100275.88;5018662;28;45267;-61
2023/09/20 12:08:53;;;;;;;;;2.25;1.25;;;;;36.66;26.05;100284.84;5018707;28;45351;-63
2023/09/20 12:11:19;;;;;;;;;3.50;2.00;;;;;36.51;25.85;100285.41;5018775;28;46457;-62
2023/09/20 12:13:46;;;;;;;;;1.25;1.25;;;;;35.91;26.56;100291.47;5018914;28;45616;-62
2023/09/20 12:16:13;;;;;;;;;2.00;2.00;;;;;36.31;26.40;100282.25;5018811;28;45334;-61
2023/09/20 12:18:38;;;;;;;;;2.00;2.00;;;;;35.78;26.80;100272.22;5018646;28;46178;-63
2023/09/20 12:21:04;;;;;;;;;3.75;3.00;;;;;36.93;26.15;100279.47;5018391;28;46204;-62
2023/09/20 12:23:30;;;;;;;;;1.00;1.00;;;;;37.72;25.45;100263.34;5019199;28;45428;-61
2023/09/20 12:25:55;;;;;;;;;2.25;2.25;;;;;37.36;24.91;100248.84;5022428;28;45278;-61
2023/09/20 12:28:23;;;;;;;;;2.00;2.00;;;;;37.17;25.34;100253.06;5022319;28;45365;-61
2023/09/20 12:30:49;;;;;;;;;2.00;2.00;;;;;38.06;24.40;100250.94;5020516;28;46210;-61
2023/09/20 12:33:14;;;;;;;;;2.00;2.00;;;;;38.28;24.56;100245.31;5022330;28;45356;-61
2023/09/20 12:35:40;;;;;;;;;2.00;2.00;;;;;37.96;24.70;100259.19;5024856;28;45456;-62
2023/09/20 12:38:06;;;;;;;;;2.00;2.00;;;;;38.19;24.22;100236.53;5032284;28;46038;-62
2023/09/20 12:40:32;;;;;;;;;1.67;0.67;;;;;38.35;24.28;100219.88;5029391;28;45479;-61
2023/09/20 12:43:01;;;;;;;;;3.00;3.00;;;;;38.58;24.29;100230.75;5026862;28;45196;-61
2023/09/20 12:45:27;;;;;;;;;3.00;2.00;;;;;39.25;23.46;100222.59;5019295;28;45471;-62
2023/09/20 12:47:52;;;;;;;;;4.50;3.00;;;;;38.96;23.37;100207.28;5021319;28;45483;-62
2023/09/20 12:50:18;;;;;;;;;0.75;0.75;;;;;39.63;22.86;100217.78;5020789;28;46324;-62
2023/09/20 12:52:46;;;;;;;;;2.25;2.25;;;;;39.09;23.52;100205.97;5021035;28;45411;-62
2023/09/20 12:55:13;;;;;;;;;1.50;1.50;;;;;39.13;22.86;100216.34;5021886;28;45369;-62
2023/09/20 12:57:40;;;;;;;;;1.00;1.00;;;;;38.76;23.47;100196.72;5021784;28;45183;-63
2023/09/20 13:00:08;;;;;;;;;2.00;2.00;;;;;38.34;24.39;100193.84;5020856;28;46106;-64
2023/09/20 13:02:33;;;;;;;;;4.00;2.33;;;;;39.74;22.70;100197.03;5021018;28;45499;-62
2023/09/20 13:04:59;;;;;;;;;2.33;2.33;;;;;40.22;21.99;100197.75;5020849;28;50612;-61
2023/09/20 13:07:26;;;;;;;;;2.00;2.00;;;;;39.71;22.59;100187.22;5021399;28;45275;-61
2023/09/20 13:09:58;;;;;;;;;1.75;1.75;;;;;39.96;22.64;100178.06;5021745;28;47104;-62
2023/09/20 13:12:24;;;;;;;;;3.25;3.00;;;;;39.44;23.27;100180.09;5021522;28;45453;-62
2023/09/20 13:14:50;;;;;;;;;2.00;2.00;;;;;39.57;22.88;100193.59;5021795;28;45529;-62
2023/09/20 13:17:15;;;;;;;;;4.00;3.00;;;;;39.69;23.13;100171.78;5021491;28;45334;-61
2023/09/20 13:19:41;;;;;;;;;2.00;2.00;;;;;39.65;22.85;100170.63;5021041;28;45578;-61
2023/09/20 13:22:08;;;;;;;;;1.50;1.50;;;;;39.10;23.45;100165.59;5021413;28;45326;-61
2023/09/20 13:24:34;;;;;;;;;1.00;1.00;;;;;37.98;24.79;100170.19;5020942;28;45278;-61
2023/09/20 13:27:00;;;;;;;;;2.25;2.25;;;;;38.02;24.79;100162.13;5020454;28;45345;-62
2023/09/20 13:29:27;;;;;;;;;2.00;2.00;;;;;37.62;25.14;100170.91;5021192;28;45396;-62
2023/09/20 13:31:53;;;;;;;;;3.50;3.50;;;;;38.01;25.25;100160.44;5025654;28;45412;-62
2023/09/20 13:34:20;;;;;;;;;1.50;1.50;;;;;37.91;24.84;100154.72;5031486;28;45427;-61
2023/09/20 13:36:47;;;;;;;;;3.25;2.25;;;;;38.06;25.23;100147.34;5027909;28;45391;-62
2023/09/20 13:39:12;;;;;;;;;2.00;2.00;;;;;37.70;25.35;100150.84;5027181;28;46149;-62
2023/09/20 13:41:39;;;;;;;;;1.25;1.25;;;;;37.78;25.64;100159.63;5031902;28;45385;-62
2023/09/20 13:44:04;;;;;;;;;1.75;1.50;;;;;37.09;26.21;100148.06;5031839;28;45565;-62
2023/09/20 13:46:30;;;;;;;;;2.00;2.00;;;;;37.08;26.10;100138.03;5024993;28;46371;-60
2023/09/20 13:48:55;;;;;;;;;1.25;1.25;;;;;37.71;25.46;100141.34;5021113;28;45932;-61
2023/09/20 13:51:21;;;;;;;;;2.75;2.25;;;;;38.13;24.67;100131.19;5021056;28;45317;-61
2023/09/20 13:53:49;;;;;;;;;1.25;1.25;;;;;38.57;24.66;100131.88;5020473;28;45288;-62
2023/09/20 13:56:17;;;;;;;;;2.67;2.00;;;;;38.82;23.64;100121.94;5021012;28;45271;-62
2023/09/20 13:58:43;;;;;;;;;2.00;2.00;;;;;38.89;23.81;100128.13;5020998;28;46197;-62
2023/09/20 14:01:08;;;;;;;;;3.25;2.00;;;;;38.60;24.56;100122.94;5019823;28;45364;-62
2023/09/20 14:03:37;;;;;;;;;0.33;0.33;;;;;38.53;24.56;100110.28;5021311;28;45300;-62
2023/09/20 14:06:04;;;;;;;;;1.50;0.25;;;;;38.08;24.50;100111.56;5019963;28;45503;-61
2023/09/20 14:08:32;;;;;;;;;1.50;1.50;;;;;37.65;25.13;100118.09;5020354;28;45649;-62
2023/09/20 14:10:57;;;;;;;;;1.00;1.00;;;;;37.67;24.95;100135.47;5020405;28;45282;-62
2023/09/20 14:13:26;;;;;;;;;3.50;3.50;;;;;36.73;26.27;100104.84;5002972;28;45351;-62
2023/09/20 14:15:56;;;;;;;;;2.50;2.00;;;;;36.83;26.30;100109.72;5019967;28;45562;-62
2023/09/20 14:18:21;;;;;;;;;2.25;2.25;;;;;36.39;26.47;100098.41;5019916;28;45252;-61
2023/09/20 14:20:53;;;;;;;;;0.50;0.50;;;;;35.70;27.39;100088.50;5020250;28;45357;-62
2023/09/20 14:23:19;;;;;;;;;1.75;1.75;;;;;35.61;27.47;100084.41;5020704;28;45309;-61
2023/09/20 14:25:47;;;;;;;;;1.25;1.25;;;;;35.60;27.62;100074.34;5020527;28;45603;-62
2023/09/20 14:28:13;;;;;;;;;2.00;2.00;;;;;35.82;27.40;100080.94;5020683;28;45411;-62
2023/09/20 14:30:39;;;;;;;;;2.00;1.75;;;;;36.13;26.93;100064.72;5019086;28;45382;-62
2023/09/20 14:33:04;;;;;;;;;2.00;2.00;;;;;36.00;27.16;100066.75;4999652;28;45303;-62
2023/09/20 14:35:30;;;;;;;;;1.25;1.25;;;;;36.29;27.13;100070.34;5017859;28;45508;-63
2023/09/20 14:37:55;;;;;;;;;1.00;1.00;;;;;35.81;27.20;100067.25;5019834;28;59597;-62
2023/09/20 14:40:22;;;;;;;;;1.25;1.25;;;;;35.57;27.57;100055.31;5020320;28;45464;-62
2023/09/20 14:42:49;;;;;;;;;1.00;1.00;;;;;35.49;28.02;100058.50;5001081;28;45394;-63
2023/09/20 14:45:16;;;;;;;;;1.50;1.50;;;;;35.49;27.95;100048.22;5020019;28;45371;-60
2023/09/20 14:47:44;;;;;;;;;1.75;1.75;;;;;36.23;27.27;100054.59;5019899;28;45385;-63
2023/09/20 14:50:12;;;;;;;;;2.00;2.00;;;;;36.69;26.58;100055.31;5019828;28;45379;-65
2023/09/20 14:52:38;;;;;;;;;2.50;2.00;;;;;36.87;26.58;100049.41;5019529;28;45407;-66
2023/09/20 14:55:04;;;;;;;;;2.25;2.00;;;;;37.33;25.85;100042.47;5019645;28;46071;-67
2023/09/20 14:57:30;;;;;;;;;1.00;1.00;;;;;37.21;26.08;100043.72;5019896;28;46151;-67
2023/09/20 14:59:56;;;;;;;;;2.00;2.00;;;;;37.63;25.70;100036.38;5019965;28;45321;-67
2023/09/20 15:02:21;;;;;;;;;0.75;0.75;;;;;37.24;25.99;100034.81;5020283;28;45360;-66
2023/09/20 15:04:47;;;;;;;;;1.00;1.00;;;;;36.83;26.35;100036.22;5019481;28;46930;-67
2023/09/20 15:07:12;;;;;;;;;3.75;2.50;;;;;36.78;26.44;100024.97;5019825;28;45401;-68
2023/09/20 15:09:40;;;;;;;;;2.00;2.00;;;;;36.80;26.41;100017.19;5019872;28;45365;-67
2023/09/20 15:12:06;;;;;;;;;2.00;2.00;;;;;36.52;26.44;100018.16;5020220;28;45339;-67
2023/09/20 15:14:31;;;;;;;;;3.75;1.50;;;;;36.55;26.72;100007.34;5019415;28;45345;-67
2023/09/20 15:16:57;;;;;;;;;2.00;2.00;;;;;37.10;26.32;100001.63;5019650;28;47283;-68
2023/09/20 15:19:23;;;;;;;;;2.00;2.00;;;;;37.33;25.94;99985.69;5019366;28;45385;-67
2023/09/20 15:21:49;;;;;;;;;3.50;1.00;;;;;37.92;25.14;99988.50;5019871;28;45349;-67
2023/09/20 15:24:14;;;;;;;;;2.00;2.00;;;;;37.94;24.85;99983.47;5019344;28;45324;-67
2023/09/20 15:26:40;;;;;;;;;2.00;2.00;;;;;37.88;25.27;99975.03;5019563;28;45560;-68
2023/09/20 15:29:05;;;;;;;;;3.00;3.00;;;;;38.21;25.08;99982.28;5019441;28;45227;-68
2023/09/20 15:31:30;;;;;;;;;2.00;2.00;;;;;37.65;25.35;99982.94;5018461;28;45337;-68
2023/09/20 15:33:56;;;;;;;;;3.25;3.00;;;;;37.24;25.82;99962.13;5019015;28;45230;-67
2023/09/20 15:36:21;;;;;;;;;3.25;2.00;;;;;37.90;25.27;99952.38;5019534;28;45299;-68
2023/09/20 15:38:47;;;;;;;;;2.25;2.00;;;;;37.71;25.14;99953.91;5019060;28;45291;-67
2023/09/20 15:41:12;;;;;;;;;4.00;3.00;;;;;38.35;24.45;99949.06;5019734;28;45303;-67
2023/09/20 15:43:39;;;;;;;;;4.25;1.75;;;;;38.31;24.52;99961.91;5018770;28;60167;-68
2023/09/20 15:46:09;;;;;;;;;2.00;2.00;;;;;38.39;23.85;99941.78;5019526;28;46222;-67
2023/09/20 15:48:35;;;;;;;;;3.50;2.00;;;;;38.60;23.77;99949.22;5019143;28;45341;-68
2023/09/20 15:51:01;;;;;;;;;0.50;0.50;;;;;38.74;23.87;99938.34;5019199;28;45366;-68
2023/09/20 15:53:27;;;;;;;;;1.00;1.00;;;;;38.91;23.52;99936.16;5019013;28;45587;-67
2023/09/20 15:55:53;;;;;;;;;2.25;2.25;;;;;39.23;23.52;99927.56;5019202;28;46199;-67
2023/09/20 15:58:19;;;;;;;;;3.50;2.00;;;;;39.04;23.20;99936.78;5017555;28;45324;-68
2023/09/20 16:00:44;;;;;;;;;1.50;1.00;;;;;38.74;23.54;99931.88;5019092;28;45320;-67
2023/09/20 16:03:16;;;;;;;;;2.50;2.50;;;;;37.41;24.71;99940.47;5018553;28;45563;-68
2023/09/20 16:05:51;;;;;;;;;2.00;2.00;;;;;37.17;25.33;99928.78;5017435;28;45310;-68
2023/09/20 16:08:17;;;;;;;;;3.00;2.00;;;;;36.69;25.58;99930.44;5018710;28;45310;-66
2023/09/20 16:10:44;;;;;;;;;1.50;1.50;;;;;36.47;25.85;99926.81;5000940;28;45285;-67
2023/09/20 16:13:10;;;;;;;;;3.00;2.00;;;;;36.41;26.18;99925.03;5018972;28;45337;-67
2023/09/20 16:15:35;;;;;;;;;2.00;2.00;;;;;36.19;26.63;99924.13;5017578;28;45350;-67
2023/09/20 16:18:03;;;;;;;;;1.25;1.25;;;;;36.24;26.38;99911.13;5018705;28;45358;-66
2023/09/20 16:20:31;;;;;;;;;2.25;2.25;;;;;36.16;26.34;99914.31;5018738;28;45281;-66
2023/09/20 16:22:57;;;;;;;;;2.00;2.00;;;;;35.87;26.62;99910.00;5018631;28;45270;-69
2023/09/20 16:25:23;;;;;;;;;3.25;2.00;;;;;35.52;27.22;99901.88;5018630;28;45454;-67
2023/09/20 16:27:49;;;;;;;;;1.00;1.00;;;;;35.57;26.67;99908.38;5018871;28;45262;-68
2023/09/20 16:30:16;;;;;;;;;2.00;2.00;;;;;35.76;26.74;99902.56;5015742;28;45594;-68
2023/09/20 16:32:42;;;;;;;;;3.00;3.00;;;;;35.77;27.27;99899.53;5006956;28;45585;-67
2023/09/20 16:35:10;;;;;;;;;2.00;2.00;;;;;35.50;27.32;99899.34;5018096;28;46132;-67
2023/09/20 16:37:36;;;;;;;;;1.00;1.00;;;;;35.38;27.51;99906.97;5017453;28;45305;-67
2023/09/20 16:40:02;;;;;;;;;2.25;1.00;;;;;35.00;28.10;99895.66;5018498;28;45235;-64